KRAL/RAL METAR and TAF weather

Enter ICAO airport designator
Station Type Date Time Source
KRAL METAR 2022/05/26 05:53 UTC NOAA

KRAL 260553Z AUTO 24005KT 10SM CLR 18/13 A2992 RMK AO2 SLP117 T01780128 10278 20178 51017


Station Type Date Time Source
KRAL Decoded METAR 2022/05/26 05:53 UTC NOAA

RIVERSIDE MUNICIPAL AIRPORT , CA, United States (KRAL) 33-57N 117-27W 252M
May 26, 2022 - 01:53 AM EDT / 2022.05.26 0553 UTC
Wind: from the WSW (240 degrees) at 6 MPH (5 KT):0
Visibility: 10 mile(s):0
Sky conditions: clear
Temperature: 64.0 F (17.8 C)
Dew Point: 55.0 F (12.8 C)
Relative Humidity: 72%
Pressure (altimeter): 29.92 in. Hg (1013 hPa)
Pressure tendency: 0.05 inches (1.7 hPa) higher than three hours ago
ob: KRAL 260553Z AUTO 24005KT 10SM CLR 18/13 A2992 RMK AO2 SLP117 T01780128 10278 20178 51017
cycle: 6

Station Type Date Time Source
KRAL TAF UTC NOAA

Error!

Example: see airport list